TimeMST,TemperatureF,Dew PointF,Humidity,Sea Level PressureIn,VisibilityMPH,Wind Direction,Wind SpeedMPH,Gust SpeedMPH,PrecipitationIn,Events,Conditions,WindDirDegrees,DateUTC
12:15 AM,51.8,32.0,47,30.07,10.0,SE,5.8,-,N/A,,Clear,130,2014-02-13 07:15:00
12:35 AM,50.0,32.0,50,30.07,10.0,ESE,6.9,-,N/A,,Clear,110,2014-02-13 07:35:00
12:55 AM,50.0,26.6,40,30.07,10.0,East,6.9,-,N/A,,Clear,100,2014-02-13 07:55:00
1:15 AM,50.0,24.8,37,30.07,10.0,East,8.1,-,N/A,,Clear,100,2014-02-13 08:15:00
1:35 AM,50.0,24.8,37,30.07,10.0,East,6.9,-,N/A,,Clear,100,2014-02-13 08:35:00
1:55 AM,48.2,23.0,37,30.07,10.0,East,9.2,-,N/A,,Clear,100,2014-02-13 08:55:00
2:15 AM,50.0,23.0,35,30.07,10.0,East,8.1,-,N/A,,Clear,100,2014-02-13 09:15:00
2:35 AM,50.0,24.8,37,30.07,10.0,ESE,6.9,-,N/A,,Clear,110,2014-02-13 09:35:00
2:55 AM,50.0,24.8,37,30.07,10.0,ESE,6.9,-,N/A,,Clear,110,2014-02-13 09:55:00
3:15 AM,50.0,26.6,40,30.07,10.0,ESE,5.8,-,N/A,,Clear,120,2014-02-13 10:15:00
3:35 AM,46.4,23.0,40,30.07,10.0,ESE,6.9,-,N/A,,Clear,110,2014-02-13 10:35:00
3:55 AM,46.4,24.8,43,30.06,10.0,East,8.1,-,N/A,,Clear,100,2014-02-13 10:55:00
4:15 AM,46.4,23.0,40,30.06,10.0,ESE,6.9,-,N/A,,Clear,110,2014-02-13 11:15:00
4:35 AM,46.4,23.0,40,30.06,10.0,ESE,8.1,-,N/A,,Clear,120,2014-02-13 11:35:00
4:47 AM,48.2,24.8,40,30.06,20.0,ESE,6.9,-,N/A,,Partly Cloudy,120,2014-02-13 11:47:00
4:55 AM,46.4,24.8,43,30.07,10.0,ESE,5.8,-,N/A,,Clear,110,2014-02-13 11:55:00
5:15 AM,46.4,23.0,40,30.07,10.0,ESE,5.8,-,N/A,,Clear,110,2014-02-13 12:15:00
5:50 AM,44.6,24.8,46,30.08,20.0,SE,5.8,-,N/A,,Partly Cloudy,130,2014-02-13 12:50:00
6:50 AM,44.6,26.6,49,30.09,20.0,SE,6.9,-,N/A,,Partly Cloudy,130,2014-02-13 13:50:00
7:47 AM,44.6,26.6,49,30.10,45.0,SE,6.9,-,N/A,,Partly Cloudy,130,2014-02-13 14:47:00
8:47 AM,53.6,30.2,41,30.12,45.0,SE,6.9,-,N/A,,Partly Cloudy,130,2014-02-13 15:47:00
9:47 AM,60.8,32.0,34,30.13,45.0,SE,4.6,-,N/A,,Partly Cloudy,130,2014-02-13 16:47:00
10:47 AM,66.2,28.4,24,30.12,45.0,Calm,Calm,-,N/A,,Partly Cloudy,0,2014-02-13 17:47:00
11:47 AM,71.6,30.2,22,30.10,45.0,Calm,Calm,-,N/A,,Partly Cloudy,0,2014-02-13 18:47:00
12:48 PM,73.4,26.6,18,30.06,45.0,Calm,Calm,-,N/A,,Scattered Clouds,0,2014-02-13 19:48:00
1:48 PM,75.2,26.6,17,30.02,45.0,Calm,Calm,-,N/A,,Scattered Clouds,0,2014-02-13 20:48:00
2:55 PM,78.8,28.4,16,29.99,45.0,Calm,Calm,-,N/A,,Scattered Clouds,0,2014-02-13 21:55:00
3:55 PM,78.8,28.4,16,29.98,45.0,WNW,4.6,-,N/A,,Scattered Clouds,300,2014-02-13 22:55:00
4:50 PM,78.8,26.6,15,29.98,45.0,NNW,3.5,-,N/A,,Scattered Clouds,330,2014-02-13 23:50:00
5:47 PM,78.8,28.4,16,29.99,45.0,North,3.5,-,N/A,,Scattered Clouds,350,2014-02-14 00:47:00
6:50 PM,73.4,28.4,19,30.00,20.0,North,-9999.0,-,N/A,,Partly Cloudy,0,2014-02-14 01:50:00
7:47 PM,66.2,28.4,24,30.00,20.0,East,3.5,-,N/A,,Partly Cloudy,90,2014-02-14 02:47:00
7:55 PM,64.4,30.2,28,30.00,10.0,Calm,Calm,-,N/A,,Clear,0,2014-02-14 02:55:00
8:15 PM,62.6,30.2,30,30.00,10.0,Calm,Calm,-,N/A,,Clear,0,2014-02-14 03:15:00
8:35 PM,60.8,30.2,31,30.00,10.0,East,5.8,-,N/A,,Clear,100,2014-02-14 03:35:00
8:47 PM,60.8,28.4,29,30.00,20.0,ESE,5.8,-,N/A,,Partly Cloudy,120,2014-02-14 03:47:00
8:55 PM,60.8,28.4,29,30.01,10.0,ESE,4.6,-,N/A,,Clear,110,2014-02-14 03:55:00
9:15 PM,57.2,30.2,36,30.00,10.0,ESE,5.8,-,N/A,,Clear,120,2014-02-14 04:15:00
9:35 PM,57.2,28.4,33,29.99,10.0,ESE,8.1,-,N/A,,Clear,120,2014-02-14 04:35:00
9:47 PM,57.2,28.4,33,30.03,20.0,ESE,6.9,-,N/A,,Scattered Clouds,120,2014-02-14 04:47:00
9:55 PM,57.2,30.2,36,30.00,10.0,ESE,6.9,-,N/A,,Clear,120,2014-02-14 04:55:00
10:15 PM,55.4,28.4,36,30.00,10.0,ESE,8.1,-,N/A,,Clear,110,2014-02-14 05:15:00
10:35 PM,55.4,28.4,36,30.02,10.0,East,4.6,-,N/A,,Clear,100,2014-02-14 05:35:00
10:47 PM,55.4,26.6,33,30.03,20.0,East,3.5,-,N/A,,Scattered Clouds,80,2014-02-14 05:47:00
10:55 PM,55.4,28.4,36,30.04,10.0,ENE,6.9,-,N/A,,Clear,70,2014-02-14 05:55:00
11:15 PM,53.6,28.4,38,30.04,10.0,ESE,3.5,-,N/A,,Clear,110,2014-02-14 06:15:00
11:35 PM,51.8,28.4,41,30.03,10.0,ESE,6.9,-,N/A,,Clear,120,2014-02-14 06:35:00
11:47 PM,53.6,30.2,41,30.04,20.0,Calm,Calm,-,N/A,,Scattered Clouds,0,2014-02-14 06:47:00
11:55 PM,51.8,30.2,44,30.03,10.0,SE,8.1,-,N/A,,Clear,140,2014-02-14 06:55:00